Time;durP1;ratioP1;P1;durP2;ratioP2;P2;SDS_P1;SDS_P2;PMS_P1;PMS_P2;Temp;Humidity;BMP_temperature;BMP_pressure;BME280_temperature;BME280_humidity;BME280_pressure;Samples;Min_cycle;Max_cycle;Signal;HPM_P1;HPM_P2
2021/03/27 00:00:27;;;;;;;0.13;0.13;;;9.90;65.50;;;;;;5090079;28;20116;-69
2021/03/27 00:03:14;;;;;;;0.08;0.08;;;9.90;65.30;;;;;;5092464;28;20024;-68
2021/03/27 00:05:47;;;;;;;0.10;0.10;;;9.90;65.40;;;;;;5081716;28;20028;-70
2021/03/27 00:08:23;;;;;;;;;;;9.80;65.50;;;;;;5091284;28;20069;-69
2021/03/27 00:11:01;;;;;;;;;;;9.80;66.10;;;;;;5083504;28;20338;-70
2021/03/27 00:13:26;;;;;;;;;;;9.70;66.20;;;;;;5091058;28;19908;-67
2021/03/27 00:16:09;;;;;;;0.00;0.00;;;9.70;66.20;;;;;;5091574;28;20481;-69
2021/03/27 00:18:38;;;;;;;;;;;9.70;66.30;;;;;;5091210;28;20029;-67
2021/03/27 00:21:10;;;;;;;;;;;9.70;66.30;;;;;;5092347;28;20011;-70
2021/03/27 00:23:44;;;;;;;;;;;9.70;65.90;;;;;;5090322;28;19915;-69
2021/03/27 00:26:16;;;;;;;;;;;9.60;66.20;;;;;;5082806;28;19957;-70
2021/03/27 00:28:50;;;;;;;0.00;0.00;;;9.70;67.10;;;;;;5077586;28;20390;-70
2021/03/27 00:31:19;;;;;;;;;;;9.70;67.00;;;;;;5081216;28;20032;-70
2021/03/27 00:33:46;;;;;;;;;;;9.60;66.60;;;;;;5091409;28;19983;-69
2021/03/27 00:36:17;;;;;;;;;;;9.60;66.50;;;;;;5093689;28;19904;-68
2021/03/27 00:38:47;;;;;;;;;;;9.60;67.70;;;;;;5092588;28;19904;-71
2021/03/27 00:41:15;;;;;;;;;;;9.60;67.80;;;;;;5092769;28;20354;-67
2021/03/27 00:43:43;;;;;;;;;;;9.50;68.00;;;;;;5076106;28;20276;-68
2021/03/27 00:46:11;;;;;;;;;;;9.40;68.20;;;;;;5093824;28;19911;-67
2021/03/27 00:48:36;;;;;;;;;;;9.30;68.20;;;;;;5093730;28;19908;-67
2021/03/27 00:51:09;;;;;;;;;;;9.30;68.40;;;;;;5093532;28;19912;-68
2021/03/27 00:53:45;;;;;;;;;;;9.30;68.40;;;;;;5079990;28;19911;-69
2021/03/27 00:56:14;;;;;;;;;;;9.30;69.10;;;;;;5093787;28;19916;-69
2021/03/27 00:58:49;;;;;;;;;;;9.20;69.80;;;;;;5080158;28;19911;-68
2021/03/27 01:01:16;;;;;;;;;;;9.20;70.10;;;;;;5090273;28;19912;-68
2021/03/27 01:03:53;;;;;;;;;;;9.10;70.40;;;;;;5093490;28;19974;-68
2021/03/27 01:06:23;;;;;;;;;;;9.10;70.60;;;;;;5079807;28;20013;-69
2021/03/27 01:08:50;;;;;;;;;;;9.00;70.60;;;;;;5079465;28;19947;-68
2021/03/27 01:11:24;;;;;;;;;;;9.00;70.90;;;;;;5062634;28;19908;-68
2021/03/27 01:13:51;;;;;;;;;;;9.00;71.70;;;;;;5078116;28;19965;-67
2021/03/27 01:16:19;;;;;;;;;;;9.00;71.70;;;;;;5093023;28;19907;-68
2021/03/27 01:18:46;;;;;;;;;;;8.90;72.80;;;;;;5093768;28;19904;-68
2021/03/27 01:21:13;;;;;;;;;;;8.80;73.00;;;;;;5075250;28;20365;-68
2021/03/27 01:23:39;;;;;;;;;;;8.80;74.70;;;;;;5092818;28;19908;-68
2021/03/27 01:26:07;;;;;;;;;;;8.80;74.10;;;;;;5093687;28;19904;-69
2021/03/27 01:28:36;;;;;;;;;;;8.70;73.80;;;;;;5093681;28;20006;-68
2021/03/27 01:31:10;;;;;;;;;;;8.60;75.60;;;;;;5085239;28;19965;-68
2021/03/27 01:33:36;;;;;;;;;;;8.60;76.10;;;;;;5087309;28;19940;-68
2021/03/27 01:36:15;;;;;;;;;;;8.60;76.50;;;;;;5075529;28;20352;-67
2021/03/27 01:39:03;;;;;;;;;;;8.50;76.80;;;;;;5093416;28;19907;-67
2021/03/27 01:41:33;;;;;;;;;;;8.50;78.00;;;;;;5091891;28;19918;-67
2021/03/27 01:44:31;;;;;;;;;;;8.40;80.20;;;;;;5092686;28;20288;-73
2021/03/27 01:46:57;;;;;;;;;;;;;;;;;;5053290;28;19939;-67
2021/03/27 01:49:23;;;;;;;;;;;;;;;;;;5082441;28;19947;-68
2021/03/27 01:51:49;;;;;;;;;;;;;;;;;;5077427;28;19904;-67
2021/03/27 01:54:17;;;;;;;;;;;8.20;83.60;;;;;;5066552;28;19912;-69
2021/03/27 01:56:43;;;;;;;;;;;8.20;82.70;;;;;;5088788;28;19909;-69
2021/03/27 01:59:11;;;;;;;;;;;8.20;82.80;;;;;;5077756;28;19964;-68
2021/03/27 02:01:57;;;;;;;;;;;8.20;82.50;;;;;;5080908;28;19912;-67
2021/03/27 02:04:26;;;;;;;;;;;8.20;85.50;;;;;;5078797;28;19922;-67
2021/03/27 02:06:52;;;;;;;;;;;8.30;85.60;;;;;;5079101;28;19904;-66
2021/03/27 02:09:22;;;;;;;;;;;8.30;87.70;;;;;;5078206;28;19904;-66
2021/03/27 02:11:50;;;;;;;;;;;8.20;90.20;;;;;;5081181;28;19908;-67
2021/03/27 02:14:34;;;;;;;;;;;8.10;91.50;;;;;;5077513;28;20285;-67
2021/03/27 02:17:18;;;;;;;;;;;8.10;92.80;;;;;;5086922;28;19905;-67
2021/03/27 02:19:50;;;;;;;;;;;7.90;93.10;;;;;;5083268;28;19912;-67
2021/03/27 02:22:23;;;;;;;;;;;8.00;92.80;;;;;;5082369;28;19913;-67
2021/03/27 02:24:54;;;;;;;;;;;7.90;93.90;;;;;;5083262;28;19970;-67
2021/03/27 02:27:43;;;;;;;;;;;7.70;95.50;;;;;;5082469;28;19911;-67
2021/03/27 02:30:19;;;;;;;;;;;7.50;96.90;;;;;;5069118;28;20261;-66
2021/03/27 02:32:51;;;;;;;;;;;7.50;98.00;;;;;;5081203;28;19926;-68
2021/03/27 02:35:24;;;;;;;;;;;7.20;99.90;;;;;;5085180;28;19943;-68
2021/03/27 02:37:58;;;;;;;;;;;7.20;99.90;;;;;;5081478;28;19908;-66
2021/03/27 02:40:31;;;;;;;;;;;7.20;99.90;;;;;;5090369;28;19994;-67
2021/03/27 02:42:59;;;;;;;;;;;7.10;99.90;;;;;;5096682;28;19995;-66
2021/03/27 02:45:28;;;;;;;;;;;7.00;99.90;;;;;;5096440;28;19971;-66
2021/03/27 02:48:01;;;;;;;;;;;7.00;99.90;;;;;;5078111;28;20367;-66
2021/03/27 02:50:32;;;;;;;;;;;6.90;99.90;;;;;;5078485;28;19912;-66
2021/03/27 02:52:58;;;;;;;;;;;6.90;99.90;;;;;;5078292;28;20373;-67
2021/03/27 02:55:27;;;;;;;;;;;6.90;99.90;;;;;;5096253;28;19904;-66
2021/03/27 02:58:04;;;;;;;;;;;6.80;99.90;;;;;;5096255;28;20269;-66
2021/03/27 03:00:35;;;;;;;;;;;6.70;99.90;;;;;;5083336;28;20384;-66
2021/03/27 03:03:09;;;;;;;;;;;6.70;99.90;;;;;;5096015;28;19994;-68
2021/03/27 03:05:39;;;;;;;;;;;6.70;99.90;;;;;;5096132;28;19943;-67
2021/03/27 03:08:10;;;;;;;;;;;6.70;99.90;;;;;;5096210;28;19904;-67
2021/03/27 03:10:40;;;;;;;;;;;6.70;99.90;;;;;;5082420;28;19904;-67
2021/03/27 03:13:24;;;;;;;;;;;6.70;99.90;;;;;;5095894;28;20350;-66
2021/03/27 03:15:54;;;;;;;;;;;6.70;99.90;;;;;;5083013;28;20366;-66
2021/03/27 03:18:23;;;;;;;;;;;6.70;99.90;;;;;;5095687;28;20331;-66
2021/03/27 03:20:54;;;;;;;;;;;6.70;99.90;;;;;;5095729;28;19920;-66
2021/03/27 03:23:25;;;;;;;;;;;6.70;99.90;;;;;;5095738;28;19904;-67
2021/03/27 03:26:00;;;;;;;;;;;6.60;99.90;;;;;;5081962;28;20319;-67
2021/03/27 03:28:27;;;;;;;;;;;;;;;;;;5095933;28;19904;-67
2021/03/27 03:31:01;;;;;;;;;;;6.40;99.90;;;;;;5095391;28;20250;-67
2021/03/27 03:33:26;;;;;;;;;;;6.50;99.90;;;;;;5095615;28;19904;-67
2021/03/27 03:35:58;;;;;;;;;;;6.60;99.90;;;;;;5095310;28;19910;-67
2021/03/27 03:38:27;;;;;;;;;;;6.50;99.90;;;;;;5095392;28;19996;-68
2021/03/27 03:41:11;;;;;;;;;;;6.60;99.90;;;;;;5095795;28;19911;-69
2021/03/27 03:43:39;;;;;;;;;;;6.60;99.90;;;;;;5083548;28;19908;-67
2021/03/27 03:46:23;;;;;;;;;;;6.60;99.90;;;;;;5095216;28;19934;-68
2021/03/27 03:48:55;;;;;;;;;;;6.50;99.90;;;;;;5095509;28;19914;-68
2021/03/27 03:51:23;;;;;;;;;;;6.50;99.90;;;;;;5094931;28;19939;-68
2021/03/27 03:54:08;;;;;;;;;;;6.50;99.90;;;;;;5095102;28;19910;-68
2021/03/27 03:56:41;;;;;;;;;;;6.40;99.90;;;;;;5095342;28;19927;-69
2021/03/27 03:59:22;;;;;;;;;;;6.40;99.90;;;;;;5094689;28;19908;-68
2021/03/27 04:01:55;;;;;;;;;;;6.30;99.90;;;;;;5094807;28;19969;-68
2021/03/27 04:04:22;;;;;;;;;;;;;;;;;;5094956;28;19904;-68
2021/03/27 04:06:49;;;;;;;;;;;;;;;;;;5094709;28;20297;-68
2021/03/27 04:09:15;;;;;;;;;;;;;;;;;;5094747;28;19908;-69
2021/03/27 04:11:41;;;;;;;;;;;;;;;;;;5094268;28;19926;-68
2021/03/27 04:14:06;;;;;;;;;;;;;;;;;;5095040;28;20338;-68
2021/03/27 04:16:32;;;;;;;;;;;;;;;;;;5095242;28;19950;-68
2021/03/27 04:18:58;;;;;;;;;;;;;;;;;;5076230;28;19904;-68
2021/03/27 04:21:24;;;;;;;;;;;;;;;;;;5094484;28;20317;-68
2021/03/27 04:23:50;;;;;;;;;;;;;;;;;;5094420;28;20452;-68
2021/03/27 04:26:16;;;;;;;;;;;;;;;;;;5094254;28;20019;-67
2021/03/27 04:28:42;;;;;;;;;;;;;;;;;;5094371;28;19950;-67
2021/03/27 04:31:30;;;;;;;;;;;5.80;99.90;;;;;;5094403;28;19904;-66
2021/03/27 04:34:03;;;;;;;;;;;5.80;99.90;;;;;;5043854;28;20262;-67
2021/03/27 04:36:32;;;;;;;;;;;5.70;99.90;;;;;;5083751;28;19904;-66
2021/03/27 04:39:16;;;;;;;;;;;5.70;99.90;;;;;;5094430;28;19908;-67
2021/03/27 04:41:51;;;;;;;;;;;5.70;99.90;;;;;;5093792;28;19916;-67
2021/03/27 04:44:20;;;;;;;;;;;5.70;99.90;;;;;;5094189;28;19908;-67
2021/03/27 04:46:54;;;;;;;;;;;5.80;99.90;;;;;;5080205;28;19904;-66
2021/03/27 04:49:29;;;;;;;;;;;5.80;99.90;;;;;;5094324;28;19947;-67
2021/03/27 04:51:54;;;;;;;;;;;5.70;99.90;;;;;;5088722;28;19904;-67
2021/03/27 04:54:32;;;;;;;;;;;5.70;99.90;;;;;;5094199;28;19994;-67
2021/03/27 04:57:33;;;;;;;;;;;5.80;99.90;;;;;;5093089;28;20358;-67
2021/03/27 05:00:11;;;;;;;;;;;5.80;99.90;;;;;;5042127;28;19904;-67
2021/03/27 05:02:39;;;;;;;;;;;5.70;99.90;;;;;;5077286;28;19916;-67
2021/03/27 05:05:24;;;;;;;;;;;5.80;99.90;;;;;;5079424;28;19905;-67
2021/03/27 05:07:55;;;;;;;;;;;5.90;99.90;;;;;;5089268;28;19904;-67
2021/03/27 05:10:21;;;;;;;;;;;5.90;99.90;;;;;;5078601;28;19904;-67
2021/03/27 05:12:52;;;;;;;;;;;5.90;99.90;;;;;;5076866;28;19914;-68
2021/03/27 05:15:33;;;;;;;;;;;6.00;99.90;;;;;;5085667;28;19913;-68
2021/03/27 05:18:03;;;;;;;;;;;6.00;99.90;;;;;;5077414;28;19911;-67
2021/03/27 05:20:39;;;;;;;;;;;5.90;99.90;;;;;;5079297;28;19970;-67
2021/03/27 05:23:11;;;;;;;;;;;6.00;99.90;;;;;;5077225;28;19958;-66
2021/03/27 05:25:55;;;;;;;;;;;6.00;99.90;;;;;;5057672;28;19920;-68
2021/03/27 05:28:24;;;;;;;;;;;6.00;99.90;;;;;;5062819;28;19905;-68
2021/03/27 05:31:08;;;;;;;;;;;6.00;99.90;;;;;;5057489;28;19958;-67
2021/03/27 05:33:59;;;;;;;;;;;6.20;99.90;;;;;;5059385;28;19943;-68
2021/03/27 05:36:44;;;;;;;;;;;6.30;99.90;;;;;;5054335;28;19931;-68
2021/03/27 05:39:24;;;;;;;;;;;6.40;99.90;;;;;;5066866;28;20016;-68
2021/03/27 05:41:59;;;;;;;;;;;6.50;99.90;;;;;;5060852;28;19912;-67
2021/03/27 05:44:25;;;;;;;;;;;6.70;99.90;;;;;;5073218;28;19908;-67
2021/03/27 05:47:08;;;;;;;;;;;6.80;99.90;;;;;;5072873;28;20418;-67
2021/03/27 05:49:36;;;;;;;;;;;6.90;99.90;;;;;;5073395;28;19904;-67
2021/03/27 05:52:25;;;;;;;;;;;7.00;99.90;;;;;;5074878;28;19904;-67
2021/03/27 05:54:50;;;;;;;;;;;7.00;99.90;;;;;;5076954;28;19912;-66
2021/03/27 05:57:19;;;;;;;;;;;7.10;99.90;;;;;;5077074;28;19905;-67
2021/03/27 06:00:03;;;;;;;;;;;7.20;99.90;;;;;;5075645;28;19950;-66
2021/03/27 06:02:38;;;;;;;;;;;7.40;99.90;;;;;;5077212;28;19924;-66
2021/03/27 06:05:19;;;;;;;;;;;7.40;99.90;;;;;;5075872;28;19905;-67
2021/03/27 06:08:04;;;;;;;;;;;7.50;99.90;;;;;;5076561;28;19947;-66
2021/03/27 06:10:36;;;;;;;;;;;7.70;99.90;;;;;;5076554;28;19961;-66
2021/03/27 06:13:17;;;;;;;;;;;7.70;99.90;;;;;;5076765;28;20437;-66
2021/03/27 06:16:01;;;;;;;;;;;7.70;99.90;;;;;;5063138;28;20359;-66
2021/03/27 06:18:45;;;;;;;;;;;7.60;99.90;;;;;;5076825;28;19998;-67
2021/03/27 06:21:16;;;;;;;;;;;7.80;99.90;;;;;;5076310;28;19912;-67
2021/03/27 06:23:51;;;;;;;;;;;8.00;99.90;;;;;;5078668;28;19905;-67
2021/03/27 06:26:22;;;;;;;;;;;7.80;99.90;;;;;;5097476;28;19957;-67
2021/03/27 06:28:55;;;;;;;;;;;7.90;99.90;;;;;;5096375;28;19908;-67
2021/03/27 06:31:41;;;;;;;;;;;8.00;99.90;;;;;;5096721;28;19904;-66
2021/03/27 06:34:06;;;;;;;;;;;7.90;99.90;;;;;;5096656;28;19911;-66
2021/03/27 06:36:58;;;;;;;;;;;8.10;99.90;;;;;;5096639;28;19904;-69
2021/03/27 06:39:31;;;;;;;;;;;8.20;99.90;;;;;;5053514;28;19904;-67
2021/03/27 06:42:15;;;;;;;;;;;8.30;99.90;;;;;;5096460;28;19955;-70
2021/03/27 06:44:59;;;;;;;;;;;8.40;99.90;;;;;;5096318;28;19911;-67
2021/03/27 06:47:34;;;;;;;;;;;8.40;99.90;;;;;;5097025;28;19911;-67
2021/03/27 06:50:09;;;;;;;;;;;8.40;99.90;;;;;;5078116;28;19985;-67
2021/03/27 06:52:48;;;;;;;;;;;8.50;99.90;;;;;;5078234;28;19931;-67
2021/03/27 06:55:26;;;;;;;;;;;8.70;99.90;;;;;;5082325;28;19953;-67
2021/03/27 06:58:10;;;;;;;;;;;8.80;99.90;;;;;;5096489;28;19908;-68
2021/03/27 07:00:41;;;;;;;;;;;8.80;99.90;;;;;;5084081;28;20421;-67
2021/03/27 07:03:25;;;;;;;;;;;9.00;99.90;;;;;;5094893;28;20362;-67
2021/03/27 07:05:54;;;;;;;;;;;9.10;99.90;;;;;;5094972;28;20335;-68
2021/03/27 07:08:22;;;;;;;;;;;9.10;99.90;;;;;;5094783;28;19908;-67
2021/03/27 07:10:50;;;;;;;;;;;9.30;99.90;;;;;;5094575;28;20269;-67
2021/03/27 07:13:39;;;;;;;;;;;9.40;99.90;;;;;;5094545;28;20277;-67
2021/03/27 07:16:16;;;;;;;;;;;9.50;99.90;;;;;;5068174;28;19990;-65
2021/03/27 07:19:00;;;;;;;;;;;9.60;99.90;;;;;;5080020;28;19904;-65
2021/03/27 07:21:28;;;;;;;;;;;9.70;99.90;;;;;;5082429;28;19989;-67
2021/03/27 07:24:06;;;;;;;;;;;9.90;99.90;;;;;;5092120;28;20374;-66
2021/03/27 07:26:31;;;;;;;;;;;9.90;99.90;;;;;;5095872;28;20285;-67
2021/03/27 07:28:57;;;;;;;;;;;9.90;99.90;;;;;;5095442;28;19938;-67
2021/03/27 07:31:29;;;;;;;;;;;10.00;99.90;;;;;;5095011;28;20463;-67
2021/03/27 07:34:04;;;;;;;;;;;10.10;99.90;;;;;;5095096;28;20251;-68
2021/03/27 07:36:38;;;;;;;;;;;10.30;99.90;;;;;;5095212;28;19915;-67
2021/03/27 07:39:27;;;;;;;;;;;10.40;99.90;;;;;;5094815;28;20293;-66
2021/03/27 07:41:52;;;;;;;;;;;10.40;99.90;;;;;;5046304;28;19956;-66
2021/03/27 07:44:18;;;;;;;;;;;10.70;99.90;;;;;;5100623;28;19908;-68
2021/03/27 07:47:02;;;;;;;;;;;10.80;99.90;;;;;;5094623;28;19904;-69
2021/03/27 07:49:28;;;;;;;;;;;10.90;99.90;;;;;;5092836;28;19908;-66
2021/03/27 07:51:53;;;;;;;;;;;;;;;;;;5092010;28;19910;-66
2021/03/27 07:54:19;;;;;;;;;;;;;;;;;;5093408;28;20269;-66
2021/03/27 07:56:45;;;;;;;;;;;;;;;;;;5091341;28;19904;-66
2021/03/27 07:59:11;;;;;;;;;;;;;;;;;;5092687;28;20341;-68
2021/03/27 08:01:37;;;;;;;;;;;;;;;;;;5065191;28;20010;-69
2021/03/27 08:04:03;;;;;;;;;;;;;;;;;;5068282;28;19931;-69
2021/03/27 08:06:29;;;;;;;;;;;;;;;;;;5091945;28;20345;-71
2021/03/27 08:08:55;;;;;;;;;;;;;;;;;;5093877;28;19986;-68
2021/03/27 08:11:21;;;;;;;;;;;;;;;;;;5093557;28;19911;-68
2021/03/27 08:13:47;;;;;;;;;;;;;;;;;;5087525;28;20361;-69
2021/03/27 08:16:13;;;;;;;;;;;;;;;;;;5079576;28;19908;-70
2021/03/27 08:18:39;;;;;;;;;;;;;;;;;;5090211;28;19913;-68
2021/03/27 08:21:05;;;;;;;;;;;;;;;;;;5092170;28;19912;-68
2021/03/27 08:23:31;;;;;;;;;;;;;;;;;;5075253;28;19961;-68
2021/03/27 08:25:57;;;;;;;;;;;;;;;;;;5091244;28;19916;-67
2021/03/27 08:28:22;;;;;;;;;;;;;;;;;;5085084;28;19908;-66
2021/03/27 08:30:48;;;;;;;;;;;;;;;;;;5089449;28;19904;-68
2021/03/27 08:33:14;;;;;;;;;;;;;;;;;;5090269;28;20304;-68
2021/03/27 08:35:40;;;;;;;;;;;;;;;;;;5093078;28;20366;-68
2021/03/27 08:38:06;;;;;;;;;;;;;;;;;;5092861;28;19904;-72
2021/03/27 08:40:32;;;;;;;;;;;;;;;;;;5092826;28;19978;-70
2021/03/27 08:42:58;;;;;;;;;;;;;;;;;;5072095;28;19908;-71
2021/03/27 08:45:24;;;;;;;;;;;;;;;;;;5093754;28;20027;-73
2021/03/27 08:47:50;;;;;;;;;;;;;;;;;;5091577;28;20344;-69
2021/03/27 08:50:16;;;;;;;;;;;;;;;;;;5060013;28;19947;-69
2021/03/27 08:52:42;;;;;;;;;;;;;;;;;;5092924;28;19904;-67
2021/03/27 08:55:08;;;;;;;;;;;;;;;;;;5090221;28;19911;-69
2021/03/27 08:57:33;;;;;;;;;;;14.30;90.10;;;;;;5064130;28;20366;-69
2021/03/27 09:00:05;;;;;;;;;;;14.20;88.40;;;;;;5088690;28;20050;-70
2021/03/27 09:02:48;;;;;;;;;;;14.20;89.30;;;;;;5091630;28;19912;-68
2021/03/27 09:05:14;;;;;;;;;;;;;;;;;;5089756;28;19905;-70
2021/03/27 09:07:44;;;;;;;;;;;14.20;98.60;;;;;;5091820;28;19904;-74
2021/03/27 09:10:10;;;;;;;;;;;;;;;;;;5088853;28;20396;-69
2021/03/27 09:12:36;;;;;;;;;;;;;;;;;;5091635;28;20007;-70
2021/03/27 09:15:10;;;;;;;;;;;;;;;;;;5091038;28;19904;-69
2021/03/27 09:17:36;;;;;;;;;;;14.90;92.80;;;;;;5074559;28;19947;-69
2021/03/27 09:20:02;;;;;;;;;;;;;;;;;;5093219;28;19956;-72
2021/03/27 09:22:28;;;;;;;;;;;;;;;;;;5086120;28;20334;-69
2021/03/27 09:24:56;;;;;;;;;;;;;;;;;;5088500;28;20011;-71
2021/03/27 09:27:22;;;;;;;;;;;;;;;;;;5091200;28;20406;-74
2021/03/27 09:29:48;;;;;;;;;;;;;;;;;;5062418;28;20370;-72
2021/03/27 09:32:13;;;;;;;;;;;;;;;;;;5092000;28;20042;-72
2021/03/27 09:34:39;;;;;;;;;;;;;;;;;;5073629;28;19919;-73
2021/03/27 09:37:05;;;;;;;;;;;;;;;;;;5091769;28;19995;-70
2021/03/27 09:39:31;;;;;;;;;;;;;;;;;;5091381;28;19942;-69
2021/03/27 09:41:57;;;;;;;;;;;;;;;;;;5091900;28;19948;-69
2021/03/27 09:44:23;;;;;;;;;;;;;;;;;;5091395;28;19943;-69
2021/03/27 09:46:49;;;;;;;;;;;;;;;;;;5091850;28;19908;-71
2021/03/27 09:49:15;;;;;;;;;;;;;;;;;;5092808;28;19911;-73
2021/03/27 09:51:41;;;;;;;;;;;;;;;;;;5092474;28;19919;-71
2021/03/27 09:54:07;;;;;;;;;;;16.00;86.00;;;;;;5086751;28;19998;-68
2021/03/27 09:56:36;;;;;;;;;;;16.80;85.30;;;;;;5090301;28;19974;-71
2021/03/27 09:59:07;;;;;;;;;;;16.70;85.50;;;;;;5088090;28;20358;-68
2021/03/27 10:01:33;;;;;;;;;;;;;;;;;;5060847;28;20282;-71
2021/03/27 10:03:59;;;;;;;;;;;;;;;;;;5092716;28;19969;-72
2021/03/27 10:06:41;;;;;;;;;;;17.00;60.60;;;;;;5092325;28;20349;-70
2021/03/27 10:09:07;;;;;;;;;;;;;;;;;;5086528;28;19911;-68
2021/03/27 10:11:34;;;;;;;;;;;17.40;64.80;;;;;;5085431;28;19908;-72
2021/03/27 10:14:18;;;;;;;;;;;17.40;62.10;;;;;;5090589;28;19951;-69
2021/03/27 10:16:44;;;;;;;;;;;;;;;;;;5085554;28;19910;-69
2021/03/27 10:19:10;;;;;;;;;;;;;;;;;;5084318;28;20353;-70
2021/03/27 10:21:54;;;;;;;;;;;17.80;60.50;;;;;;5087426;28;19912;-69
2021/03/27 10:24:23;;;;;;;;;;;17.70;65.10;;;;;;5085526;28;19959;-69
2021/03/27 10:26:54;;;;;;;;;;;17.90;67.00;;;;;;5087790;28;19904;-68
2021/03/27 10:29:43;;;;;;;;;;;17.80;65.70;;;;;;5084448;28;19913;-70
2021/03/27 10:32:21;;;;;;;;;;;17.70;67.50;;;;;;5088780;28;19912;-69
2021/03/27 10:34:48;;;;;;;;;;;18.00;70.00;;;;;;5088081;28;20002;-70
2021/03/27 10:37:29;;;;;;;;;;;18.00;76.30;;;;;;5063734;28;20263;-69
2021/03/27 10:40:10;;;;;;;;;;;18.50;77.30;;;;;;5094331;28;19908;-70
2021/03/27 10:42:46;;;;;;;;;;;18.00;78.00;;;;;;5096174;28;19911;-68
2021/03/27 10:45:11;;;;;;;;;;;18.20;80.30;;;;;;5083325;28;19951;-68
2021/03/27 10:47:41;;;;;;;;;;;18.50;84.60;;;;;;5082308;28;20401;-69
2021/03/27 10:50:13;;;;;;;;;;;18.50;84.00;;;;;;5095371;28;19995;-70
2021/03/27 10:52:39;;;;;;;;;;;;;;;;;;5092808;28;19929;-70
2021/03/27 10:55:20;;;;;;;;;;;18.50;51.70;;;;;;5094267;28;19961;-68
2021/03/27 10:57:48;;;;;;;;;;;18.50;51.90;;;;;;5091944;28;20014;-70
2021/03/27 11:00:33;;;;;;;;;;;18.50;51.90;;;;;;5093705;28;20365;-69
2021/03/27 11:03:04;;;;;;;;;;;18.70;52.70;;;;;;5093586;28;19953;-69
2021/03/27 11:05:36;;;;;;;;;;;18.70;52.00;;;;;;5090023;28;19904;-73
2021/03/27 11:08:07;;;;;;;;;;;18.80;51.50;;;;;;5090357;28;20405;-68
2021/03/27 11:10:39;;;;;;;;;;;19.00;54.00;;;;;;5088906;28;19904;-68
2021/03/27 11:13:23;;;;;;;;;;;19.00;53.50;;;;;;5064195;28;19929;-69
2021/03/27 11:15:49;;;;;;;;;;;19.10;53.10;;;;;;5090783;28;19954;-68
2021/03/27 11:18:30;;;;;;;;;;;19.40;54.10;;;;;;5063492;28;19940;-68
2021/03/27 11:21:07;;;;;;;;;;;19.40;53.80;;;;;;5091008;28;19912;-69
2021/03/27 11:24:08;;;;;;;;;;;19.40;53.20;;;;;;5090587;28;19904;-70
2021/03/27 11:26:43;;;;;;;;;;;19.40;52.90;;;;;;5065614;28;19965;-69
2021/03/27 11:29:27;;;;;;;;;;;19.60;53.30;;;;;;5091849;28;19912;-68
2021/03/27 11:32:04;;;;;;;;;;;19.70;53.70;;;;;;5063351;28;20024;-70
2021/03/27 11:35:05;;;;;;;;;;;19.60;51.70;;;;;;5090495;28;20358;-68
2021/03/27 11:37:35;;;;;;;;;;;19.60;52.70;;;;;;4986915;28;19913;-70
2021/03/27 11:40:04;;;;;;;;;;;19.60;53.30;;;;;;4990272;28;19912;-68
2021/03/27 11:42:36;;;;;;;;;;;19.70;52.50;;;;;;4980356;28;19921;-68
2021/03/27 11:45:13;;;;;;;;;;;19.80;51.80;;;;;;4994757;28;20348;-68
2021/03/27 11:47:38;;;;;;;;;;;20.10;53.20;;;;;;4999468;28;19906;-69
2021/03/27 11:50:15;;;;;;;;;;;20.10;52.50;;;;;;4992578;28;19912;-68
2021/03/27 11:52:48;;;;;;;;;;;20.00;52.10;;;;;;4992813;28;20438;-68
2021/03/27 11:55:23;;;;;;;;;;;20.00;50.60;;;;;;4979331;28;19905;-70
2021/03/27 11:58:00;;;;;;;;;;;20.10;51.50;;;;;;4992502;28;19913;-67
2021/03/27 12:01:03;;;;;;;;;;;20.30;53.30;;;;;;4980146;28;19961;-71
2021/03/27 12:03:31;;;;;;;;;;;20.20;53.90;;;;;;4993221;28;19968;-69
2021/03/27 12:06:09;;;;;;;;;;;20.50;54.30;;;;;;4976517;28;19906;-68
2021/03/27 12:08:39;;;;;;;;;;;20.60;52.80;;;;;;4992945;28;19930;-68
2021/03/27 12:11:22;;;;;;;;;;;20.60;52.90;;;;;;5025874;28;19957;-68
2021/03/27 12:14:08;;;;;;;;;;;20.70;52.50;;;;;;5094829;28;19994;-69
2021/03/27 12:16:39;;;;;;;;;;;20.70;51.40;;;;;;5075775;28;19908;-69
2021/03/27 12:19:11;;;;;;;;;;;20.50;51.60;;;;;;5066131;28;19904;-68
2021/03/27 12:21:57;;;;;;;;;;;20.20;49.40;;;;;;5081065;28;20269;-67
2021/03/27 12:24:29;;;;;;;;;;;20.40;49.90;;;;;;5081236;28;19998;-67
2021/03/27 12:27:02;;;;;;;;;;;20.50;51.80;;;;;;5094188;28;20005;-68
2021/03/27 12:29:28;;;;;;;;;;;20.70;51.90;;;;;;5087200;28;19909;-70
2021/03/27 12:32:13;;;;;;;;;;;20.60;50.30;;;;;;5070396;28;19926;-68
2021/03/27 12:34:44;;;;;;;;;;;20.70;49.60;;;;;;5082538;28;20061;-68
2021/03/27 12:37:12;;;;;;;;;;;20.80;49.60;;;;;;5094509;28;20374;-68
2021/03/27 12:40:06;;;;;;;13.20;12.50;;;21.00;66.40;;;;;;5092108;28;20452;-68
2021/03/27 12:42:40;;;;;;;;;;;20.80;64.50;;;;;;5094323;28;20462;-70
2021/03/27 12:45:21;;;;;;;;;;;21.00;64.80;;;;;;5080645;28;20025;-69
2021/03/27 12:47:56;;;;;;;;;;;21.20;66.00;;;;;;5093587;28;20370;-68
2021/03/27 12:50:30;;;;;;;6.50;6.18;;;21.20;65.50;;;;;;5092825;28;20833;-68
2021/03/27 12:53:23;;;;;;;;;;;21.30;64.50;;;;;;5093878;28;20036;-69
2021/03/27 12:55:57;;;;;;;;;;;21.40;60.30;;;;;;5094206;28;19994;-69
2021/03/27 12:58:40;;;;;;;;;;;21.50;65.70;;;;;;5094280;28;19995;-68
2021/03/27 13:01:44;;;;;;;17.60;16.45;;;21.60;66.00;;;;;;5091338;28;20508;-67
2021/03/27 13:04:12;;;;;;;;;;;21.40;63.70;;;;;;5083231;28;20462;-69
2021/03/27 13:07:12;;;;;;;9.35;8.85;;;21.50;63.70;;;;;;5073841;28;20442;-68
2021/03/27 13:09:56;;;;;;;;;;;21.20;61.10;;;;;;5093816;28;20355;-69
2021/03/27 13:12:42;;;;;;;;;;;21.00;60.00;;;;;;5080423;28;19907;-68
2021/03/27 13:15:19;;;;;;;;;;;20.80;59.30;;;;;;5074306;28;19983;-68
2021/03/27 13:18:17;;;;;;;4.85;4.55;;;21.10;63.00;;;;;;5093026;28;20393;-68
2021/03/27 13:20:48;;;;;;;;;;;21.50;62.60;;;;;;5075017;28;20032;-69
2021/03/27 13:23:17;;;;;;;;;;;21.60;63.40;;;;;;5093429;28;19920;-69
2021/03/27 13:25:54;;;;;;;;;;;21.60;62.50;;;;;;5093780;28;19916;-69
2021/03/27 13:28:19;;;;;;;;;;;21.80;65.50;;;;;;5093464;28;19908;-68
2021/03/27 13:30:51;;;;;;;;;;;22.00;66.90;;;;;;5093689;28;19999;-69
2021/03/27 13:33:17;;;;;;;;;;;;;;;;;;5093538;28;19904;-70
2021/03/27 13:35:42;;;;;;;;;;;;;;;;;;5093238;28;19961;-69
2021/03/27 13:38:11;;;;;;;;;;;;;;;;;;5093619;28;20243;-69
2021/03/27 13:40:38;;;;;;;15.98;14.77;;;;;;;;;;5074646;28;20390;-69
2021/03/27 13:43:03;;;;;;;;;;;;;;;;;;5070867;28;20024;-69
2021/03/27 13:45:30;;;;;;;68.47;39.58;;;;;;;;;;5082007;28;20427;-69
2021/03/27 13:47:56;;;;;;;;;;;;;;;;;;5092922;28;20376;-68
2021/03/27 13:50:25;;;;;;;78.85;41.90;;;;;;;;;;5091459;28;20438;-68
2021/03/27 13:52:51;;;;;;;;;;;;;;;;;;5093168;28;20031;-70
2021/03/27 13:55:17;;;;;;;;;;;;;;;;;;5075230;28;20105;-69
2021/03/27 13:58:03;;;;;;;76.72;41.42;;;;;;;;;;5091152;28;20408;-69
2021/03/27 14:00:29;;;;;;;;;;;;;;;;;;5093273;28;20048;-67
2021/03/27 14:03:28;;;;;;;40.80;32.10;;;;;;;;;;5091700;28;20437;-69
2021/03/27 14:05:54;;;;;;;;;;;;;;;;;;5056723;28;20402;-68
2021/03/27 14:08:44;;;;;;;43.13;32.65;;;;;;;;;;5091537;28;20386;-69
2021/03/27 14:11:10;;;;;;;;;;;;;;;;;;5093027;28;20020;-68
2021/03/27 14:13:39;;;;;;;48.00;33.95;;;;;;;;;;5092458;28;20494;-69
2021/03/27 14:16:05;;;;;;;;;;;;;;;;;;5078963;28;20024;-67
2021/03/27 14:18:42;;;;;;;62.13;38.50;;;;;;;;;;5094855;28;20431;-70
2021/03/27 14:21:07;;;;;;;;;;;;;;;;;;5078820;28;20058;-69
2021/03/27 14:23:39;;;;;;;47.57;34.57;;;;;;;;;;5095524;28;20884;-68
2021/03/27 14:26:10;;;;;;;;;;;;;;;;;;5097289;28;20350;-69
2021/03/27 14:28:40;;;;;;;48.67;34.53;;;;;;;;;;5095374;28;20366;-68
2021/03/27 14:31:06;;;;;;;;;;;;;;;;;;5096480;28;20477;-67
2021/03/27 14:34:01;;;;;;;22.70;20.80;;;;;;;;;;5095391;28;20378;-69
2021/03/27 14:36:27;;;;;;;;;;;;;;;;;;5062903;28;20058;-71
2021/03/27 14:38:53;;;;;;;;;;;;;;;;;;5091390;28;19904;-68
2021/03/27 14:41:19;;;;;;;;;;;;;;;;;;5096634;28;20014;-69
2021/03/27 14:43:54;;;;;;;16.13;15.15;;;;;;;;;;5096080;28;20753;-68
2021/03/27 14:46:20;;;;;;;;;;;;;;;;;;5095735;28;20077;-68
2021/03/27 14:48:46;;;;;;;36.33;30.58;;;;;;;;;;5095191;28;20374;-69
2021/03/27 14:51:12;;;;;;;;;;;;;;;;;;5096493;28;20035;-68
2021/03/27 14:53:57;;;;;;;28.35;25.60;;;;;;;;;;5077293;28;20747;-68
2021/03/27 14:56:44;;;;;;;28.52;25.80;;;;;;;;;;5079044;28;20020;-72
2021/03/27 14:59:17;;;;;;;41.40;33.60;;;;;;;;;;5095128;28;20055;-70
2021/03/27 15:01:49;;;;;;;30.20;27.20;;;;;;;;;;5091719;28;20082;-71
2021/03/27 15:04:29;;;;;;;25.90;23.75;;;;;;;;;;5068054;28;20056;-75
2021/03/27 15:07:05;;;;;;;27.40;25.02;;;29.00;53.10;;;;;;5095065;28;20017;-70
2021/03/27 15:09:50;;;;;;;33.28;29.88;;;;;;;;;;5095549;28;20020;-68
2021/03/27 15:12:46;;;;;;;37.35;31.00;;;;;;;;;;5081596;28;20107;-69
2021/03/27 15:15:23;;;;;;;36.38;31.23;;;26.10;51.80;;;;;;5012882;28;20034;-69
2021/03/27 15:17:58;;;;;;;38.70;30.17;;;25.60;42.40;;;;;;5013168;28;20440;-68
2021/03/27 15:20:35;;;;;;;22.15;20.45;;;25.00;42.40;;;;;;5013061;28;20026;-69
2021/03/27 15:23:03;;;;;;;;;;;25.10;43.80;;;;;;5014434;28;20487;-70